createdAt,value
2018-04-26T00:01:47.652Z,99802
2018-04-26T00:04:16.439Z,99801
2018-04-26T00:06:44.486Z,99797
2018-04-26T00:09:13.304Z,99790
2018-04-26T00:11:42.100Z,99794
2018-04-26T00:14:10.146Z,99807
2018-04-26T00:16:38.196Z,99807
2018-04-26T00:19:06.999Z,99803
2018-04-26T00:21:35.049Z,99814
2018-04-26T00:24:03.087Z,99813
2018-04-26T00:26:31.139Z,99819
2018-04-26T00:28:59.944Z,99827
2018-04-26T00:31:28.760Z,99836
2018-04-26T00:33:56.791Z,99831
2018-04-26T00:36:24.940Z,99836
2018-04-26T00:38:52.979Z,99832
2018-04-26T00:41:21.022Z,99840
2018-04-26T00:43:49.069Z,99846
2018-04-26T00:46:17.874Z,99846
2018-04-26T00:48:46.667Z,99851
2018-04-26T00:51:15.471Z,99851
2018-04-26T00:53:44.278Z,99847
2018-04-26T00:56:13.079Z,99841
2018-04-26T00:58:41.883Z,99844
2018-04-26T01:01:10.695Z,99859
2018-04-26T01:03:38.784Z,99862
2018-04-26T01:06:06.819Z,99868
2018-04-26T01:08:34.867Z,99869
2018-04-26T01:11:02.907Z,99870
2018-04-26T01:13:30.939Z,99868
2018-04-26T01:15:59.001Z,99871
2018-04-26T01:18:27.039Z,99867
2018-04-26T01:20:55.083Z,99865
2018-04-26T01:23:23.112Z,99866
2018-04-26T01:25:51.919Z,99871
2018-04-26T01:28:19.965Z,99877
2018-04-26T01:30:47.999Z,99879
2018-04-26T01:33:16.804Z,99880
2018-04-26T01:35:45.617Z,99882
2018-04-26T01:38:14.436Z,99885
2018-04-26T01:40:42.487Z,99892
2018-04-26T01:43:11.291Z,99900
2018-04-26T01:45:40.108Z,99894
2018-04-26T01:48:08.928Z,99899
2018-04-26T01:50:36.974Z,99900
2018-04-26T01:53:06.520Z,99899
2018-04-26T01:55:34.570Z,99897
2018-04-26T01:58:03.363Z,99901
2018-04-26T02:00:31.408Z,99906
2018-04-26T02:02:59.488Z,99901
2018-04-26T02:05:27.526Z,99900
2018-04-26T02:07:56.335Z,99906
2018-04-26T02:10:25.144Z,99903
2018-04-26T02:12:53.188Z,99899
2018-04-26T02:15:21.225Z,99899
2018-04-26T02:17:50.044Z,99899
2018-04-26T02:20:18.088Z,99901
2018-04-26T02:22:46.889Z,99907
2018-04-26T02:25:14.933Z,99920
2018-04-26T02:27:42.977Z,99919
2018-04-26T02:30:11.782Z,99920
2018-04-26T02:32:40.584Z,99919
2018-04-26T02:35:09.383Z,99914
2018-04-26T02:37:38.189Z,99906
2018-04-26T02:40:06.979Z,99912
2018-04-26T02:42:35.791Z,99902
2018-04-26T02:45:04.593Z,99912
2018-04-26T02:47:33.409Z,99913
2018-04-26T02:50:01.446Z,99901
2018-04-26T02:52:29.483Z,99901
2018-04-26T02:54:57.521Z,99904
2018-04-26T02:57:27.063Z,99913
2018-04-26T02:59:55.867Z,99913
2018-04-26T03:02:24.679Z,99913
2018-04-26T03:04:52.709Z,99912
2018-04-26T03:07:20.749Z,99917
2018-04-26T03:09:48.788Z,99908
2018-04-26T03:12:16.835Z,99902
2018-04-26T03:14:44.867Z,99900
2018-04-26T03:17:12.912Z,99900
2018-04-26T03:19:40.946Z,99902
2018-04-26T03:22:09.758Z,99899
2018-04-26T03:24:38.612Z,99907
2018-04-26T03:27:06.650Z,99918
2018-04-26T03:29:34.683Z,99920
2018-04-26T03:32:02.723Z,99919
2018-04-26T03:34:30.784Z,99922
2018-04-26T03:36:58.830Z,99923
2018-04-26T03:39:26.863Z,99923
2018-04-26T03:41:55.679Z,99928
2018-04-26T03:44:23.779Z,99933
2018-04-26T03:46:51.815Z,99940
2018-04-26T03:49:20.625Z,99944
2018-04-26T03:51:49.451Z,99950
2018-04-26T03:54:18.259Z,99947
2018-04-26T03:56:46.348Z,99950
2018-04-26T03:59:14.391Z,99954
2018-04-26T04:02:00.423Z,99958
2018-04-26T04:04:47.043Z,99959
2018-04-26T04:07:15.964Z,99956
2018-04-26T04:09:43.994Z,99961
2018-04-26T04:12:12.043Z,99959
2018-04-26T04:14:40.074Z,99961
2018-04-26T04:17:08.119Z,99959
2018-04-26T04:19:36.164Z,99965
2018-04-26T04:22:04.969Z,99964
2018-04-26T04:24:33.766Z,99968
2018-04-26T04:27:02.571Z,99965
2018-04-26T04:29:31.379Z,99967
2018-04-26T04:31:59.420Z,99958
2018-04-26T04:34:27.467Z,99960
2018-04-26T04:36:55.553Z,99954
2018-04-26T04:39:23.574Z,99964
2018-04-26T04:41:51.610Z,99966
2018-04-26T04:44:19.660Z,99961
2018-04-26T04:46:47.704Z,99968
2018-04-26T04:49:15.742Z,99971
2018-04-26T04:51:44.542Z,99966
2018-04-26T04:54:13.374Z,99970
2018-04-26T04:56:41.412Z,99974
2018-04-26T04:59:09.459Z,99974
2018-04-26T05:01:37.507Z,99970
2018-04-26T05:04:06.315Z,99971
2018-04-26T05:06:34.354Z,99980
2018-04-26T05:09:02.405Z,99979
2018-04-26T05:11:30.438Z,99978
2018-04-26T05:13:58.487Z,99983
2018-04-26T05:16:26.533Z,99987
2018-04-26T05:18:55.350Z,99996
2018-04-26T05:21:23.428Z,99990
2018-04-26T05:23:51.482Z,99992
2018-04-26T05:26:19.528Z,99995
2018-04-26T05:28:47.584Z,100002
2018-04-26T05:31:15.635Z,100000
2018-04-26T05:33:43.725Z,100003
2018-04-26T05:36:11.739Z,100005
2018-04-26T05:38:39.796Z,100014
2018-04-26T05:41:08.600Z,100015
2018-04-26T05:43:37.415Z,100015
2018-04-26T05:46:05.463Z,100023
2018-04-26T05:48:33.519Z,100018
2018-04-26T05:51:01.577Z,100023
2018-04-26T05:53:29.623Z,100021
2018-04-26T05:55:57.760Z,100026
2018-04-26T05:58:25.723Z,100027
2018-04-26T06:00:53.775Z,100022
2018-04-26T06:03:21.823Z,100028
2018-04-26T06:05:49.888Z,100026
2018-04-26T06:08:17.995Z,100033
2018-04-26T06:10:46.163Z,100043
2018-04-26T06:13:14.207Z,100040
2018-04-26T06:15:43.027Z,100044
2018-04-26T06:18:11.844Z,100042
2018-04-26T06:20:39.887Z,100043
2018-04-26T06:23:07.951Z,100043
2018-04-26T06:25:36.000Z,100044
2018-04-26T06:28:04.054Z,100048
2018-04-26T06:30:32.095Z,100050
2018-04-26T06:33:00.144Z,100054
2018-04-26T06:35:28.202Z,100055
2018-04-26T06:37:56.247Z,100058
2018-04-26T06:40:24.304Z,100066
2018-04-26T06:42:52.351Z,100060
2018-04-26T06:45:20.395Z,100063
2018-04-26T06:47:48.468Z,100067
2018-04-26T06:50:16.503Z,100071
2018-04-26T06:52:44.547Z,100064
2018-04-26T06:55:12.608Z,100066
2018-04-26T06:57:41.521Z,100071
2018-04-26T07:00:09.581Z,100061
2018-04-26T07:02:38.399Z,100064
2018-04-26T07:05:06.447Z,100065
2018-04-26T07:07:34.580Z,100062
2018-04-26T07:10:02.640Z,100069
2018-04-26T07:12:31.446Z,100065
2018-04-26T07:14:59.499Z,100067
2018-04-26T07:17:27.544Z,100065
2018-04-26T07:19:55.599Z,100066
2018-04-26T07:22:23.643Z,100067
2018-04-26T07:24:51.689Z,100073
2018-04-26T07:27:19.743Z,100078
2018-04-26T07:29:48.559Z,100081
2018-04-26T07:32:16.619Z,100081
2018-04-26T07:34:45.456Z,100078
2018-04-26T07:37:13.510Z,100078
2018-04-26T07:39:42.344Z,100084
2018-04-26T07:42:10.399Z,100085
2018-04-26T07:44:39.226Z,100082
2018-04-26T07:47:07.275Z,100077
2018-04-26T07:49:35.319Z,100081
2018-04-26T07:52:03.370Z,100075
2018-04-26T07:54:31.414Z,100083
2018-04-26T07:56:59.479Z,100077
2018-04-26T07:59:27.520Z,100078
2018-04-26T08:01:55.574Z,100079
2018-04-26T08:04:23.615Z,100079
2018-04-26T08:06:51.676Z,100087
2018-04-26T08:09:19.728Z,100088
2018-04-26T08:11:47.939Z,100078
2018-04-26T08:14:15.926Z,100081
2018-04-26T08:16:43.979Z,100082
2018-04-26T08:19:12.027Z,100073
2018-04-26T08:21:40.083Z,100078
2018-04-26T08:24:08.127Z,100077
2018-04-26T08:26:36.182Z,100081
2018-04-26T08:29:04.991Z,100085
2018-04-26T08:31:33.038Z,100090
2018-04-26T08:34:01.083Z,100092
2018-04-26T08:36:29.144Z,100096
2018-04-26T08:38:57.201Z,100091
2018-04-26T08:41:25.254Z,100098
2018-04-26T08:43:54.062Z,100088
2018-04-26T08:46:22.878Z,100095
2018-04-26T08:48:50.937Z,100091
2018-04-26T08:51:18.984Z,100093
2018-04-26T08:53:47.036Z,100091
2018-04-26T08:56:15.092Z,100099
2018-04-26T08:58:43.131Z,100102
2018-04-26T09:01:11.175Z,100102
2018-04-26T09:03:39.226Z,100100
2018-04-26T09:06:07.274Z,100096
2018-04-26T09:08:35.342Z,100094
2018-04-26T09:11:03.403Z,100091
2018-04-26T09:13:32.223Z,100095
2018-04-26T09:16:00.334Z,100087
2018-04-26T09:18:28.340Z,100094
2018-04-26T09:20:56.464Z,100093
2018-04-26T09:23:24.443Z,100105
2018-04-26T09:25:53.258Z,100104
2018-04-26T09:28:22.075Z,100112
2018-04-26T09:30:50.118Z,100109
2018-04-26T09:33:18.180Z,100100
2018-04-26T09:35:46.222Z,100105
2018-04-26T09:38:14.285Z,100103
2018-04-26T09:40:43.091Z,100107
2018-04-26T09:43:11.923Z,100107
2018-04-26T09:45:39.976Z,100111
2018-04-26T09:48:08.800Z,100110
2018-04-26T09:50:36.839Z,100112
2018-04-26T09:53:04.894Z,100100
2018-04-26T09:55:32.963Z,100097
2018-04-26T09:58:01.003Z,100092
2018-04-26T10:00:29.825Z,100091
2018-04-26T10:02:58.640Z,100094
2018-04-26T10:05:41.469Z,100097
2018-04-26T10:08:10.273Z,100099
2018-04-26T10:10:38.316Z,100099
2018-04-26T10:13:06.368Z,100096
2018-04-26T10:15:34.411Z,100105
2018-04-26T10:18:02.463Z,100107
2018-04-26T10:20:30.508Z,100104
2018-04-26T10:22:58.558Z,100110
2018-04-26T10:25:27.366Z,100104
2018-04-26T10:27:55.423Z,100105
2018-04-26T10:30:23.475Z,100104
2018-04-26T10:32:51.526Z,100096
2018-04-26T10:35:19.593Z,100095
2018-04-26T10:37:47.642Z,100093
2018-04-26T10:40:15.688Z,100105
2018-04-26T10:42:43.747Z,100098
2018-04-26T10:45:12.556Z,100095
2018-04-26T10:47:41.372Z,100093
2018-04-26T10:50:09.429Z,100095
2018-04-26T10:52:37.479Z,100097
2018-04-26T10:55:05.524Z,100093
2018-04-26T10:57:33.579Z,100096
2018-04-26T11:00:02.472Z,100091
2018-04-26T11:02:31.213Z,100090
2018-04-26T11:04:59.268Z,100096
2018-04-26T11:07:27.307Z,100096
2018-04-26T11:09:55.359Z,100096
2018-04-26T11:12:23.404Z,100092
2018-04-26T11:14:51.510Z,100078
2018-04-26T11:17:19.691Z,100065
2018-04-26T11:19:47.888Z,100071
2018-04-26T11:22:16.710Z,100065
2018-04-26T11:24:44.813Z,100071
2018-04-26T11:27:12.835Z,100076
2018-04-26T11:29:40.891Z,100077
2018-04-26T11:32:08.937Z,100069
2018-04-26T11:34:37.763Z,100066
2018-04-26T11:37:05.816Z,100057
2018-04-26T11:39:34.641Z,100060
2018-04-26T11:42:02.687Z,100052
2018-04-26T11:44:30.735Z,100051
2018-04-26T11:46:58.783Z,100039
2018-04-26T11:49:26.839Z,100043
2018-04-26T11:51:54.888Z,100059
2018-04-26T11:54:23.053Z,100064
2018-04-26T11:56:51.842Z,100052
2018-04-26T11:59:19.895Z,100063
2018-04-26T12:01:47.941Z,100059
2018-04-26T12:04:18.969Z,100053
2018-04-26T12:06:47.014Z,100049
2018-04-26T12:09:15.063Z,100049
2018-04-26T12:11:43.107Z,100045
2018-04-26T12:14:11.922Z,100035
2018-04-26T12:16:40.068Z,100042
2018-04-26T12:19:08.119Z,100050
2018-04-26T12:21:36.172Z,100036
2018-04-26T12:24:04.281Z,100031
2018-04-26T12:26:32.290Z,100040
2018-04-26T12:29:00.336Z,100037
2018-04-26T12:31:28.395Z,100040
2018-04-26T12:33:57.207Z,100040
2018-04-26T12:36:26.031Z,100038
2018-04-26T12:38:54.080Z,100038
2018-04-26T12:41:22.135Z,100042
2018-04-26T12:43:50.183Z,100042
2018-04-26T12:46:18.239Z,100043
2018-04-26T12:48:47.053Z,100049
2018-04-26T12:51:15.872Z,100041
2018-04-26T12:53:43.907Z,100041
2018-04-26T12:56:11.965Z,100032
2018-04-26T12:58:40.008Z,100033
2018-04-26T13:01:08.096Z,100036
2018-04-26T13:03:36.144Z,100028
2018-04-26T13:06:04.191Z,100037
2018-04-26T13:08:32.236Z,100032
2018-04-26T13:11:01.064Z,100032
2018-04-26T13:13:29.114Z,100035
2018-04-26T13:15:57.169Z,100043
2018-04-26T13:18:25.219Z,100039
2018-04-26T13:20:53.277Z,100038
2018-04-26T13:23:22.210Z,100033
2018-04-26T13:25:50.150Z,100037
2018-04-26T13:28:18.192Z,100039
2018-04-26T13:30:46.363Z,100037
2018-04-26T13:33:14.406Z,100053
2018-04-26T13:35:43.437Z,100046
2018-04-26T13:38:11.498Z,100051
2018-04-26T13:40:40.315Z,100054
2018-04-26T13:43:09.132Z,100049
2018-04-26T13:45:37.200Z,100052
2018-04-26T13:48:05.259Z,100053
2018-04-26T13:50:33.315Z,100046
2018-04-26T13:53:01.369Z,100037
2018-04-26T13:55:29.419Z,100042
2018-04-26T13:57:57.471Z,100039
2018-04-26T14:00:25.528Z,100032
2018-04-26T14:02:53.583Z,100034
2018-04-26T14:05:22.402Z,100032
2018-04-26T14:07:51.215Z,100040
2018-04-26T14:10:19.279Z,100034
2018-04-26T14:12:48.101Z,100033
2018-04-26T14:15:16.152Z,100033
2018-04-26T14:17:44.205Z,100031
2018-04-26T14:20:12.253Z,100030
2018-04-26T14:22:40.399Z,100029
2018-04-26T14:25:08.445Z,100026
2018-04-26T14:27:36.517Z,100030
2018-04-26T14:30:04.567Z,100028
2018-04-26T14:32:33.396Z,100026
2018-04-26T14:35:01.447Z,100026
2018-04-26T14:37:29.578Z,100024
2018-04-26T14:39:57.540Z,100017
2018-04-26T14:42:25.767Z,100016
2018-04-26T14:44:53.817Z,100011
2018-04-26T14:47:21.858Z,99998
2018-04-26T14:49:49.941Z,100007
2018-04-26T14:52:17.979Z,100011
2018-04-26T14:54:46.028Z,100003
2018-04-26T14:57:14.844Z,99999
2018-04-26T14:59:43.657Z,100002
2018-04-26T15:02:11.711Z,100001
2018-04-26T15:04:39.752Z,99997
2018-04-26T15:07:07.801Z,99996
2018-04-26T15:09:36.615Z,99985
2018-04-26T15:12:04.661Z,99987
2018-04-26T15:14:32.695Z,99975
2018-04-26T15:17:00.747Z,99977
2018-04-26T15:19:29.552Z,99977
2018-04-26T15:21:58.365Z,99979
2018-04-26T15:24:26.485Z,99967
2018-04-26T15:26:54.546Z,99977
2018-04-26T15:29:22.580Z,99987
2018-04-26T15:31:50.693Z,99984
2018-04-26T15:34:18.711Z,99973
2018-04-26T15:36:46.768Z,99968
2018-04-26T15:39:15.583Z,99974
2018-04-26T15:41:44.391Z,99971
2018-04-26T15:44:12.433Z,99973
2018-04-26T15:46:40.483Z,99973
2018-04-26T15:49:08.523Z,99973
2018-04-26T15:51:37.339Z,99975
2018-04-26T15:54:23.275Z,99980
2018-04-26T15:57:09.223Z,99979
2018-04-26T15:59:55.980Z,99959
2018-04-26T16:02:57.743Z,99959
2018-04-26T16:05:44.800Z,99962
2018-04-26T16:08:36.448Z,99961
2018-04-26T16:11:22.310Z,99968
2018-04-26T16:14:05.322Z,99961
2018-04-26T16:16:57.803Z,99967
2018-04-26T16:19:49.391Z,99964
2018-04-26T16:25:57.545Z,99973
2018-04-26T16:32:10.832Z,99978
2018-04-26T16:34:56.641Z,99976
2018-04-26T16:37:48.168Z,99960
2018-04-26T16:40:16.224Z,99961
2018-04-26T16:42:44.271Z,99959
2018-04-26T16:45:12.318Z,99961
2018-04-26T16:47:40.375Z,99963
2018-04-26T16:50:09.235Z,99954
2018-04-26T16:52:37.262Z,99959
2018-04-26T16:55:06.099Z,99969
2018-04-26T16:57:34.131Z,99958
2018-04-26T17:00:02.964Z,99961
2018-04-26T17:02:31.023Z,99963
2018-04-26T17:04:59.827Z,99954
2018-04-26T17:07:28.715Z,99962
2018-04-26T17:09:56.759Z,99964
2018-04-26T17:12:24.793Z,99967
2018-04-26T17:14:53.631Z,99974
2018-04-26T17:17:21.735Z,99978
2018-04-26T17:19:49.785Z,99980
2018-04-26T17:22:18.608Z,99981
2018-04-26T17:24:46.660Z,99979
2018-04-26T17:27:15.464Z,99975
2018-04-26T17:29:44.321Z,99977
2018-04-26T17:32:12.371Z,99978
2018-04-26T17:34:40.418Z,99979
2018-04-26T17:37:08.460Z,99979
2018-04-26T17:39:36.511Z,99969
2018-04-26T17:42:04.556Z,99975
2018-04-26T17:44:32.604Z,99974
2018-04-26T17:47:00.657Z,99978
2018-04-26T17:49:29.459Z,99976
2018-04-26T17:51:58.273Z,99984
2018-04-26T17:54:26.331Z,99984
2018-04-26T17:56:54.371Z,99992
2018-04-26T17:59:22.419Z,99994
2018-04-26T18:01:50.515Z,99990
2018-04-26T18:04:18.614Z,99988
2018-04-26T18:06:46.651Z,99988
2018-04-26T18:09:15.475Z,99998
2018-04-26T18:11:44.297Z,99994
2018-04-26T18:14:12.339Z,99994
2018-04-26T18:16:40.375Z,99989
2018-04-26T18:19:08.435Z,99999
2018-04-26T18:21:36.487Z,99998
2018-04-26T18:24:04.540Z,99996
2018-04-26T18:26:32.582Z,100005
2018-04-26T18:29:00.663Z,100010
2018-04-26T18:31:28.706Z,100014
2018-04-26T18:33:56.784Z,100019
2018-04-26T18:36:24.845Z,100016
2018-04-26T18:38:52.895Z,100027
2018-04-26T18:41:21.710Z,100031
2018-04-26T18:43:49.760Z,100039
2018-04-26T18:46:17.813Z,100044
2018-04-26T18:48:45.871Z,100050
2018-04-26T18:51:13.918Z,100054
2018-04-26T18:53:41.943Z,100067
2018-04-26T18:56:09.997Z,100064
2018-04-26T18:58:38.824Z,100071
2018-04-26T19:01:06.869Z,100071
2018-04-26T19:03:34.910Z,100078
2018-04-26T19:06:02.957Z,100089
2018-04-26T19:08:31.779Z,100088
2018-04-26T19:10:59.832Z,100087
2018-04-26T19:13:27.883Z,100103
2018-04-26T19:15:55.906Z,100097
2018-04-26T19:18:24.707Z,100101
2018-04-26T19:20:53.557Z,100100
2018-04-26T19:23:22.323Z,100101
2018-04-26T19:25:51.141Z,100096
2018-04-26T19:28:19.179Z,100107
2018-04-26T19:30:47.227Z,100106
2018-04-26T19:33:15.337Z,100104
2018-04-26T19:35:43.392Z,100108
2018-04-26T19:38:11.596Z,100102
2018-04-26T19:40:39.635Z,100108
2018-04-26T19:43:08.448Z,100118
2018-04-26T19:45:36.487Z,100124
2018-04-26T19:48:04.527Z,100129
2018-04-26T19:50:32.602Z,100125
2018-04-26T19:53:00.639Z,100134
2018-04-26T19:55:28.685Z,100138
2018-04-26T19:57:56.719Z,100138
2018-04-26T20:00:25.531Z,100142
2018-04-26T20:02:54.331Z,100143
2018-04-26T20:05:23.151Z,100140
2018-04-26T20:07:52.143Z,100144
2018-04-26T20:10:20.966Z,100139
2018-04-26T20:12:49.776Z,100140
2018-04-26T20:15:17.819Z,100136
2018-04-26T20:17:45.873Z,100139
2018-04-26T20:20:14.036Z,100132
2018-04-26T20:22:42.065Z,100140
2018-04-26T20:25:10.111Z,100138
2018-04-26T20:27:38.166Z,100138
2018-04-26T20:30:06.961Z,100146
2018-04-26T20:32:35.776Z,100144
2018-04-26T20:35:04.580Z,100141
2018-04-26T20:37:33.387Z,100138
2018-04-26T20:40:01.429Z,100139
2018-04-26T20:42:29.471Z,100134
2018-04-26T20:44:57.503Z,100141
2018-04-26T20:47:27.055Z,100130
2018-04-26T20:49:55.148Z,100130
2018-04-26T20:52:23.199Z,100133
2018-04-26T20:54:51.999Z,100129
2018-04-26T20:57:20.807Z,100131
2018-04-26T20:59:49.614Z,100135
2018-04-26T21:02:18.454Z,100135
2018-04-26T21:04:46.471Z,100136
2018-04-26T21:07:14.515Z,100133
2018-04-26T21:09:42.591Z,100136
2018-04-26T21:12:10.635Z,100139
2018-04-26T21:14:38.671Z,100137
2018-04-26T21:17:06.719Z,100136
2018-04-26T21:19:35.527Z,100130
2018-04-26T21:22:04.336Z,100132
2018-04-26T21:24:33.139Z,100136
2018-04-26T21:27:01.947Z,100134
2018-04-26T21:29:29.988Z,100129
2018-04-26T21:31:58.040Z,100124
2018-04-26T21:34:26.071Z,100127
2018-04-26T21:36:54.888Z,100126
2018-04-26T21:39:23.698Z,100118
2018-04-26T21:41:52.512Z,100119
2018-04-26T21:44:20.547Z,100117
2018-04-26T21:46:48.599Z,100121
2018-04-26T21:49:16.042Z,100120
2018-04-26T21:51:49.747Z,100120
2018-04-26T21:54:24.075Z,100120
2018-04-26T21:56:58.455Z,100117
2018-04-26T21:59:32.088Z,100115
2018-04-26T22:02:05.740Z,100115
2018-04-26T22:04:40.176Z,100111
2018-04-26T22:07:08.987Z,100111
2018-04-26T22:09:37.031Z,100113
2018-04-26T22:12:05.081Z,100109
2018-04-26T22:14:33.132Z,100103
2018-04-26T22:17:01.163Z,100102
2018-04-26T22:19:29.199Z,100107
2018-04-26T22:21:58.016Z,100103
2018-04-26T22:24:26.050Z,100105
2018-04-26T22:26:54.095Z,100108
2018-04-26T22:29:22.181Z,100107
2018-04-26T22:31:50.191Z,100106
2018-04-26T22:34:18.231Z,100105
2018-04-26T22:36:46.331Z,100108
2018-04-26T22:39:14.383Z,100104
2018-04-26T22:41:43.127Z,100098
2018-04-26T22:44:11.182Z,100098
2018-04-26T22:46:39.985Z,100093
2018-04-26T22:49:08.791Z,100096
2018-04-26T22:51:36.827Z,100094
2018-04-26T22:54:04.930Z,100093
2018-04-26T22:56:32.966Z,100086
2018-04-26T22:59:01.007Z,100092
2018-04-26T23:01:29.812Z,100090
2018-04-26T23:03:58.620Z,100090
2018-04-26T23:06:27.420Z,100093
2018-04-26T23:08:56.349Z,100086
2018-04-26T23:11:24.386Z,100093
2018-04-26T23:13:52.431Z,100096
2018-04-26T23:16:20.471Z,100091
2018-04-26T23:18:48.507Z,100084
2018-04-26T23:21:16.552Z,100086
2018-04-26T23:23:45.355Z,100084
2018-04-26T23:26:13.400Z,100083
2018-04-26T23:28:41.444Z,100081
2018-04-26T23:31:09.483Z,100078
2018-04-26T23:33:37.528Z,100079
2018-04-26T23:36:05.559Z,100081
2018-04-26T23:38:34.394Z,100074
2018-04-26T23:41:03.183Z,100074
2018-04-26T23:43:31.231Z,100075
2018-04-26T23:45:59.279Z,100080
2018-04-26T23:48:27.327Z,100077
2018-04-26T23:50:56.141Z,100070
2018-04-26T23:53:24.178Z,100067
2018-04-26T23:55:52.215Z,100071
2018-04-26T23:58:20.272Z,100075
